sensor_id;sensor_type;location;lat;lon;timestamp;temperature;humidity
19385;DHT22;9828;54.122;17.974;2023-02-16T00:03:56;2.40;99.90
19385;DHT22;9828;54.122;17.974;2023-02-16T00:09:18;2.40;99.90
19385;DHT22;9828;54.122;17.974;2023-02-16T00:14:40;2.30;99.90
19385;DHT22;9828;54.122;17.974;2023-02-16T00:20:01;2.30;99.90
19385;DHT22;9828;54.122;17.974;2023-02-16T00:25:24;2.40;99.90
19385;DHT22;9828;54.122;17.974;2023-02-16T00:30:45;2.40;99.90
19385;DHT22;9828;54.122;17.974;2023-02-16T00:36:07;2.40;99.90
19385;DHT22;9828;54.122;17.974;2023-02-16T00:41:28;2.40;99.90
19385;DHT22;9828;54.122;17.974;2023-02-16T00:47:34;2.40;99.90
19385;DHT22;9828;54.122;17.974;2023-02-16T00:52:57;2.40;99.90
19385;DHT22;9828;54.122;17.974;2023-02-16T00:58:25;2.30;99.90
19385;DHT22;9828;54.122;17.974;2023-02-16T01:03:47;2.30;99.90
19385;DHT22;9828;54.122;17.974;2023-02-16T01:09:18;2.30;99.90
19385;DHT22;9828;54.122;17.974;2023-02-16T01:14:58;2.40;99.90
19385;DHT22;9828;54.122;17.974;2023-02-16T01:20:23;2.40;99.90
19385;DHT22;9828;54.122;17.974;2023-02-16T01:25:45;2.40;99.90
19385;DHT22;9828;54.122;17.974;2023-02-16T01:31:10;2.40;99.90
19385;DHT22;9828;54.122;17.974;2023-02-16T01:36:44;2.40;99.90
19385;DHT22;9828;54.122;17.974;2023-02-16T01:48:03;2.30;99.90
19385;DHT22;9828;54.122;17.974;2023-02-16T01:53:47;2.20;99.90
19385;DHT22;9828;54.122;17.974;2023-02-16T02:04:50;2.20;99.90
19385;DHT22;9828;54.122;17.974;2023-02-16T02:10:53;2.20;99.90
19385;DHT22;9828;54.122;17.974;2023-02-16T02:16:21;2.20;99.90
19385;DHT22;9828;54.122;17.974;2023-02-16T02:45:39;2.20;99.90
19385;DHT22;9828;54.122;17.974;2023-02-16T02:57:22;2.20;99.90
19385;DHT22;9828;54.122;17.974;2023-02-16T03:03:25;2.20;99.90
19385;DHT22;9828;54.122;17.974;2023-02-16T03:08:52;2.20;99.90
19385;DHT22;9828;54.122;17.974;2023-02-16T03:14:15;2.20;99.90
19385;DHT22;9828;54.122;17.974;2023-02-16T03:19:39;2.20;99.90
19385;DHT22;9828;54.122;17.974;2023-02-16T03:25:27;2.10;99.90
19385;DHT22;9828;54.122;17.974;2023-02-16T03:31:12;2.10;99.90
19385;DHT22;9828;54.122;17.974;2023-02-16T03:36:40;2.20;99.90
19385;DHT22;9828;54.122;17.974;2023-02-16T03:42:02;2.10;99.90
19385;DHT22;9828;54.122;17.974;2023-02-16T03:47:23;2.10;99.90
19385;DHT22;9828;54.122;17.974;2023-02-16T03:52:44;2.10;99.90
19385;DHT22;9828;54.122;17.974;2023-02-16T03:58:07;2.00;99.90
19385;DHT22;9828;54.122;17.974;2023-02-16T04:03:29;2.00;99.90
19385;DHT22;9828;54.122;17.974;2023-02-16T04:08:50;1.90;99.90
19385;DHT22;9828;54.122;17.974;2023-02-16T04:14:11;1.90;99.90
19385;DHT22;9828;54.122;17.974;2023-02-16T04:19:33;1.90;99.90
19385;DHT22;9828;54.122;17.974;2023-02-16T04:24:54;1.80;99.90
19385;DHT22;9828;54.122;17.974;2023-02-16T04:30:18;1.80;99.90
19385;DHT22;9828;54.122;17.974;2023-02-16T04:35:40;1.80;99.90
19385;DHT22;9828;54.122;17.974;2023-02-16T04:41:01;1.80;99.90
19385;DHT22;9828;54.122;17.974;2023-02-16T04:46:23;1.90;99.90
19385;DHT22;9828;54.122;17.974;2023-02-16T04:51:44;1.90;99.90
19385;DHT22;9828;54.122;17.974;2023-02-16T04:57:05;1.80;99.90
19385;DHT22;9828;54.122;17.974;2023-02-16T05:02:27;1.80;99.90
19385;DHT22;9828;54.122;17.974;2023-02-16T05:07:48;1.80;99.90
19385;DHT22;9828;54.122;17.974;2023-02-16T05:13:10;1.80;99.90
19385;DHT22;9828;54.122;17.974;2023-02-16T05:18:50;1.80;99.90
19385;DHT22;9828;54.122;17.974;2023-02-16T05:24:11;1.80;99.90
19385;DHT22;9828;54.122;17.974;2023-02-16T05:29:33;1.80;99.90
19385;DHT22;9828;54.122;17.974;2023-02-16T05:34:54;1.80;99.90
19385;DHT22;9828;54.122;17.974;2023-02-16T05:40:15;1.80;99.90
19385;DHT22;9828;54.122;17.974;2023-02-16T05:45:37;1.90;99.90
19385;DHT22;9828;54.122;17.974;2023-02-16T05:50:59;2.00;99.90
19385;DHT22;9828;54.122;17.974;2023-02-16T05:56:20;2.00;99.90
19385;DHT22;9828;54.122;17.974;2023-02-16T06:01:42;2.00;99.90
19385;DHT22;9828;54.122;17.974;2023-02-16T06:07:04;1.90;99.90
19385;DHT22;9828;54.122;17.974;2023-02-16T06:12:25;2.00;99.90
19385;DHT22;9828;54.122;17.974;2023-02-16T06:17:46;2.00;99.90
19385;DHT22;9828;54.122;17.974;2023-02-16T06:23:10;2.00;99.90
19385;DHT22;9828;54.122;17.974;2023-02-16T06:28:31;2.00;99.90
19385;DHT22;9828;54.122;17.974;2023-02-16T06:33:53;2.00;99.90
19385;DHT22;9828;54.122;17.974;2023-02-16T06:39:16;2.10;99.90
19385;DHT22;9828;54.122;17.974;2023-02-16T06:44:37;2.20;99.90
19385;DHT22;9828;54.122;17.974;2023-02-16T06:50:06;2.10;99.90
19385;DHT22;9828;54.122;17.974;2023-02-16T06:55:29;2.20;99.90
19385;DHT22;9828;54.122;17.974;2023-02-16T07:00:54;2.10;99.90
19385;DHT22;9828;54.122;17.974;2023-02-16T07:06:15;2.10;99.90
19385;DHT22;9828;54.122;17.974;2023-02-16T07:11:36;2.20;99.90
19385;DHT22;9828;54.122;17.974;2023-02-16T07:16:58;2.00;99.90
19385;DHT22;9828;54.122;17.974;2023-02-16T07:22:22;2.00;99.90
19385;DHT22;9828;54.122;17.974;2023-02-16T07:27:44;2.10;99.90
19385;DHT22;9828;54.122;17.974;2023-02-16T07:33:06;2.10;99.90
19385;DHT22;9828;54.122;17.974;2023-02-16T07:38:27;2.20;99.90
19385;DHT22;9828;54.122;17.974;2023-02-16T07:43:48;2.20;99.90
19385;DHT22;9828;54.122;17.974;2023-02-16T07:49:09;2.20;99.90
19385;DHT22;9828;54.122;17.974;2023-02-16T07:54:31;2.20;99.90
19385;DHT22;9828;54.122;17.974;2023-02-16T07:59:53;2.20;99.90
19385;DHT22;9828;54.122;17.974;2023-02-16T08:05:15;2.20;99.90
19385;DHT22;9828;54.122;17.974;2023-02-16T08:10:36;2.30;99.90
19385;DHT22;9828;54.122;17.974;2023-02-16T08:15:57;2.30;99.90
19385;DHT22;9828;54.122;17.974;2023-02-16T08:21:21;2.30;99.90
19385;DHT22;9828;54.122;17.974;2023-02-16T08:26:43;2.40;99.90
19385;DHT22;9828;54.122;17.974;2023-02-16T08:32:05;2.40;99.90
19385;DHT22;9828;54.122;17.974;2023-02-16T08:37:28;2.50;99.90
19385;DHT22;9828;54.122;17.974;2023-02-16T08:42:50;2.60;99.90
19385;DHT22;9828;54.122;17.974;2023-02-16T08:48:11;2.60;99.90
19385;DHT22;9828;54.122;17.974;2023-02-16T08:53:33;2.70;99.90
19385;DHT22;9828;54.122;17.974;2023-02-16T08:58:55;2.90;99.90
19385;DHT22;9828;54.122;17.974;2023-02-16T09:04:18;3.10;99.90
19385;DHT22;9828;54.122;17.974;2023-02-16T09:09:39;3.10;99.90
19385;DHT22;9828;54.122;17.974;2023-02-16T09:15:02;3.20;99.90
19385;DHT22;9828;54.122;17.974;2023-02-16T09:20:27;3.20;99.90
19385;DHT22;9828;54.122;17.974;2023-02-16T09:25:48;3.30;99.90
19385;DHT22;9828;54.122;17.974;2023-02-16T09:31:29;3.30;99.90
19385;DHT22;9828;54.122;17.974;2023-02-16T09:36:50;3.30;99.90
19385;DHT22;9828;54.122;17.974;2023-02-16T09:42:30;3.50;99.90
19385;DHT22;9828;54.122;17.974;2023-02-16T09:47:53;3.50;99.90
19385;DHT22;9828;54.122;17.974;2023-02-16T09:53:40;3.60;99.90
19385;DHT22;9828;54.122;17.974;2023-02-16T09:59:12;3.70;99.90
19385;DHT22;9828;54.122;17.974;2023-02-16T10:04:56;3.90;99.90
19385;DHT22;9828;54.122;17.974;2023-02-16T10:10:31;4.00;99.90
19385;DHT22;9828;54.122;17.974;2023-02-16T10:15:55;4.10;99.90
19385;DHT22;9828;54.122;17.974;2023-02-16T10:21:23;4.30;99.90
19385;DHT22;9828;54.122;17.974;2023-02-16T10:26:49;4.40;99.90
19385;DHT22;9828;54.122;17.974;2023-02-16T10:32:27;4.50;99.90
19385;DHT22;9828;54.122;17.974;2023-02-16T10:49:02;4.50;99.90
19385;DHT22;9828;54.122;17.974;2023-02-16T10:54:28;4.50;99.90
19385;DHT22;9828;54.122;17.974;2023-02-16T10:59:51;4.60;99.90
19385;DHT22;9828;54.122;17.974;2023-02-16T11:10:49;5.20;99.90
19385;DHT22;9828;54.122;17.974;2023-02-16T11:16:18;5.40;99.90
19385;DHT22;9828;54.122;17.974;2023-02-16T11:21:48;5.60;99.90
19385;DHT22;9828;54.122;17.974;2023-02-16T11:32:34;5.80;99.90
19385;DHT22;9828;54.122;17.974;2023-02-16T11:37:55;6.30;99.90
19385;DHT22;9828;54.122;17.974;2023-02-16T11:43:17;7.30;99.90
19385;DHT22;9828;54.122;17.974;2023-02-16T11:48:38;7.50;99.90
19385;DHT22;9828;54.122;17.974;2023-02-16T11:54:03;7.80;99.90
19385;DHT22;9828;54.122;17.974;2023-02-16T11:59:25;8.70;99.90
19385;DHT22;9828;54.122;17.974;2023-02-16T12:05:21;9.70;99.90
19385;DHT22;9828;54.122;17.974;2023-02-16T12:16:46;11.40;94.20
19385;DHT22;9828;54.122;17.974;2023-02-16T12:27:51;12.60;90.80
19385;DHT22;9828;54.122;17.974;2023-02-16T12:39:15;12.90;84.10
19385;DHT22;9828;54.122;17.974;2023-02-16T12:44:55;12.70;85.00
19385;DHT22;9828;54.122;17.974;2023-02-16T12:50:29;12.20;91.90
19385;DHT22;9828;54.122;17.974;2023-02-16T12:55:55;12.00;94.10
19385;DHT22;9828;54.122;17.974;2023-02-16T13:01:24;12.10;94.20
19385;DHT22;9828;54.122;17.974;2023-02-16T13:07:04;11.90;95.10
19385;DHT22;9828;54.122;17.974;2023-02-16T13:18:01;10.90;99.30
19385;DHT22;9828;54.122;17.974;2023-02-16T13:35:11;11.90;97.00
19385;DHT22;9828;54.122;17.974;2023-02-16T13:46:31;11.70;98.10
19385;DHT22;9828;54.122;17.974;2023-02-16T13:51:52;11.80;97.20
19385;DHT22;9828;54.122;17.974;2023-02-16T14:15:05;9.80;99.90
19385;DHT22;9828;54.122;17.974;2023-02-16T14:20:30;9.50;99.90
19385;DHT22;9828;54.122;17.974;2023-02-16T14:26:00;9.30;99.90
19385;DHT22;9828;54.122;17.974;2023-02-16T14:31:26;9.20;99.90
19385;DHT22;9828;54.122;17.974;2023-02-16T14:42:45;9.10;99.90
19385;DHT22;9828;54.122;17.974;2023-02-16T14:59:59;8.80;99.90
19385;DHT22;9828;54.122;17.974;2023-02-16T15:05:25;8.80;99.90
19385;DHT22;9828;54.122;17.974;2023-02-16T15:10:52;8.70;99.90
19385;DHT22;9828;54.122;17.974;2023-02-16T15:16:20;8.60;99.90
19385;DHT22;9828;54.122;17.974;2023-02-16T15:21:42;8.50;99.90
19385;DHT22;9828;54.122;17.974;2023-02-16T15:27:03;8.50;99.90
19385;DHT22;9828;54.122;17.974;2023-02-16T15:32:25;8.30;99.90
19385;DHT22;9828;54.122;17.974;2023-02-16T15:37:46;8.20;99.90
19385;DHT22;9828;54.122;17.974;2023-02-16T15:43:17;8.10;99.90
19385;DHT22;9828;54.122;17.974;2023-02-16T15:48:44;7.90;99.90
19385;DHT22;9828;54.122;17.974;2023-02-16T15:54:17;7.80;99.90
19385;DHT22;9828;54.122;17.974;2023-02-16T16:05:02;7.70;99.90
19385;DHT22;9828;54.122;17.974;2023-02-16T16:10:29;7.50;99.90
19385;DHT22;9828;54.122;17.974;2023-02-16T16:15:54;7.50;99.90
19385;DHT22;9828;54.122;17.974;2023-02-16T16:21:28;7.30;99.90
19385;DHT22;9828;54.122;17.974;2023-02-16T16:26:56;7.10;99.90
19385;DHT22;9828;54.122;17.974;2023-02-16T16:32:21;6.90;99.90
19385;DHT22;9828;54.122;17.974;2023-02-16T16:37:43;6.90;99.90
19385;DHT22;9828;54.122;17.974;2023-02-16T16:43:05;6.90;99.90
19385;DHT22;9828;54.122;17.974;2023-02-16T16:48:33;6.90;99.90
19385;DHT22;9828;54.122;17.974;2023-02-16T16:53:57;6.80;99.90
19385;DHT22;9828;54.122;17.974;2023-02-16T16:59:23;6.80;99.90
19385;DHT22;9828;54.122;17.974;2023-02-16T17:04:45;6.70;99.90
19385;DHT22;9828;54.122;17.974;2023-02-16T17:10:08;6.70;99.90
19385;DHT22;9828;54.122;17.974;2023-02-16T17:20:56;6.60;99.90
19385;DHT22;9828;54.122;17.974;2023-02-16T17:26:17;6.60;99.90
19385;DHT22;9828;54.122;17.974;2023-02-16T17:31:39;6.60;99.90
19385;DHT22;9828;54.122;17.974;2023-02-16T17:37:02;6.50;99.90
19385;DHT22;9828;54.122;17.974;2023-02-16T17:42:25;6.50;99.90
19385;DHT22;9828;54.122;17.974;2023-02-16T17:47:50;6.50;99.90
19385;DHT22;9828;54.122;17.974;2023-02-16T17:53:16;6.60;99.90
19385;DHT22;9828;54.122;17.974;2023-02-16T17:58:38;6.60;99.90
19385;DHT22;9828;54.122;17.974;2023-02-16T18:04:05;6.60;99.90
19385;DHT22;9828;54.122;17.974;2023-02-16T18:09:26;6.70;99.90
19385;DHT22;9828;54.122;17.974;2023-02-16T18:14:47;6.70;99.90
19385;DHT22;9828;54.122;17.974;2023-02-16T18:20:13;6.70;99.90
19385;DHT22;9828;54.122;17.974;2023-02-16T18:25:45;6.70;99.90
19385;DHT22;9828;54.122;17.974;2023-02-16T18:31:07;6.60;99.90
19385;DHT22;9828;54.122;17.974;2023-02-16T18:36:28;6.60;99.90
19385;DHT22;9828;54.122;17.974;2023-02-16T18:41:49;6.50;99.90
19385;DHT22;9828;54.122;17.974;2023-02-16T18:47:11;6.40;99.90
19385;DHT22;9828;54.122;17.974;2023-02-16T18:52:32;6.40;99.90
19385;DHT22;9828;54.122;17.974;2023-02-16T18:57:53;6.30;99.90
19385;DHT22;9828;54.122;17.974;2023-02-16T19:03:14;6.30;99.90
19385;DHT22;9828;54.122;17.974;2023-02-16T19:08:35;6.40;99.90
19385;DHT22;9828;54.122;17.974;2023-02-16T19:13:57;6.30;99.90
19385;DHT22;9828;54.122;17.974;2023-02-16T19:19:18;6.30;99.90
19385;DHT22;9828;54.122;17.974;2023-02-16T19:24:39;6.30;99.90
19385;DHT22;9828;54.122;17.974;2023-02-16T19:30:01;6.30;99.90
19385;DHT22;9828;54.122;17.974;2023-02-16T19:35:22;6.30;99.90
19385;DHT22;9828;54.122;17.974;2023-02-16T19:40:43;6.30;99.90
19385;DHT22;9828;54.122;17.974;2023-02-16T19:46:05;6.30;99.90
19385;DHT22;9828;54.122;17.974;2023-02-16T19:51:27;6.30;99.90
19385;DHT22;9828;54.122;17.974;2023-02-16T19:56:48;6.40;99.90
19385;DHT22;9828;54.122;17.974;2023-02-16T20:02:10;6.40;99.90
19385;DHT22;9828;54.122;17.974;2023-02-16T20:07:33;6.40;99.90
19385;DHT22;9828;54.122;17.974;2023-02-16T20:12:55;6.40;99.90
19385;DHT22;9828;54.122;17.974;2023-02-16T20:18:16;6.40;99.90
19385;DHT22;9828;54.122;17.974;2023-02-16T20:23:38;6.40;99.90
19385;DHT22;9828;54.122;17.974;2023-02-16T20:28:59;6.40;99.90
19385;DHT22;9828;54.122;17.974;2023-02-16T20:34:20;6.40;99.90
19385;DHT22;9828;54.122;17.974;2023-02-16T20:39:42;6.40;99.90
19385;DHT22;9828;54.122;17.974;2023-02-16T20:45:03;6.40;99.90
19385;DHT22;9828;54.122;17.974;2023-02-16T20:50:25;6.40;99.90
19385;DHT22;9828;54.122;17.974;2023-02-16T20:55:46;6.40;99.90
19385;DHT22;9828;54.122;17.974;2023-02-16T21:01:35;6.50;99.90
19385;DHT22;9828;54.122;17.974;2023-02-16T21:06:57;6.50;99.90
19385;DHT22;9828;54.122;17.974;2023-02-16T21:12:18;6.50;99.90
19385;DHT22;9828;54.122;17.974;2023-02-16T21:17:39;6.50;99.90
19385;DHT22;9828;54.122;17.974;2023-02-16T21:23:01;6.60;99.90
19385;DHT22;9828;54.122;17.974;2023-02-16T21:28:24;6.70;99.90
19385;DHT22;9828;54.122;17.974;2023-02-16T21:33:46;6.70;99.90
19385;DHT22;9828;54.122;17.974;2023-02-16T21:39:07;6.60;99.90
19385;DHT22;9828;54.122;17.974;2023-02-16T21:44:29;6.70;99.90
19385;DHT22;9828;54.122;17.974;2023-02-16T21:49:50;6.80;99.90
19385;DHT22;9828;54.122;17.974;2023-02-16T21:55:11;6.70;99.90
19385;DHT22;9828;54.122;17.974;2023-02-16T22:00:51;6.70;99.90
19385;DHT22;9828;54.122;17.974;2023-02-16T22:06:13;6.70;99.90
19385;DHT22;9828;54.122;17.974;2023-02-16T22:11:34;6.70;99.90
19385;DHT22;9828;54.122;17.974;2023-02-16T22:16:55;6.60;99.90
19385;DHT22;9828;54.122;17.974;2023-02-16T22:22:17;6.60;99.90
19385;DHT22;9828;54.122;17.974;2023-02-16T22:27:39;6.60;99.90
19385;DHT22;9828;54.122;17.974;2023-02-16T22:33:00;6.60;99.90
19385;DHT22;9828;54.122;17.974;2023-02-16T22:38:21;6.60;99.90
19385;DHT22;9828;54.122;17.974;2023-02-16T22:43:43;6.50;99.90
19385;DHT22;9828;54.122;17.974;2023-02-16T22:49:04;6.50;99.90
19385;DHT22;9828;54.122;17.974;2023-02-16T22:54:25;6.50;99.90
19385;DHT22;9828;54.122;17.974;2023-02-16T22:59:47;6.50;99.90
19385;DHT22;9828;54.122;17.974;2023-02-16T23:05:11;6.50;99.90
19385;DHT22;9828;54.122;17.974;2023-02-16T23:10:33;6.50;99.90
19385;DHT22;9828;54.122;17.974;2023-02-16T23:15:55;6.50;99.90
19385;DHT22;9828;54.122;17.974;2023-02-16T23:21:22;6.50;99.90
19385;DHT22;9828;54.122;17.974;2023-02-16T23:26:44;6.50;99.90
19385;DHT22;9828;54.122;17.974;2023-02-16T23:32:05;6.50;99.90
19385;DHT22;9828;54.122;17.974;2023-02-16T23:37:28;6.50;99.90
19385;DHT22;9828;54.122;17.974;2023-02-16T23:42:50;6.40;99.90
19385;DHT22;9828;54.122;17.974;2023-02-16T23:48:11;6.40;99.90
19385;DHT22;9828;54.122;17.974;2023-02-16T23:53:33;6.40;99.90
19385;DHT22;9828;54.122;17.974;2023-02-16T23:58:59;6.40;99.90
